createdAt,value
2022-08-26T00:00:11.243Z,100990.59
2022-08-26T00:02:40.119Z,100994.97
2022-08-26T00:05:08.374Z,100991.00
2022-08-26T00:07:36.485Z,100997.03
2022-08-26T00:10:06.188Z,100993.16
2022-08-26T00:12:35.892Z,101000.69
2022-08-26T00:15:06.304Z,100997.19
2022-08-26T00:17:34.541Z,100999.56
2022-08-26T00:20:02.626Z,101001.28
2022-08-26T00:22:31.231Z,101004.28
2022-08-26T00:25:01.714Z,101002.38
2022-08-26T00:27:33.867Z,100998.53
2022-08-26T00:30:02.593Z,101002.59
2022-08-26T00:32:31.817Z,101003.47
2022-08-26T00:35:02.483Z,100994.81
2022-08-26T00:37:30.387Z,100997.25
2022-08-26T00:39:58.278Z,100994.16
2022-08-26T00:42:28.740Z,101013.22
2022-08-26T00:44:56.886Z,101008.47
2022-08-26T00:47:37.475Z,101010.88
2022-08-26T00:50:11.628Z,101009.69
2022-08-26T00:52:40.676Z,101010.03
2022-08-26T00:55:20.247Z,101008.09
2022-08-26T00:57:50.460Z,101007.72
2022-08-26T01:00:24.121Z,101014.88
2022-08-26T01:02:52.165Z,101021.22
2022-08-26T01:05:21.625Z,101018.84
2022-08-26T01:07:49.815Z,101028.75
2022-08-26T01:10:22.284Z,101028.38
2022-08-26T01:12:56.481Z,101025.22
2022-08-26T01:15:32.803Z,101024.03
2022-08-26T01:18:01.401Z,101022.03
2022-08-26T01:20:39.290Z,101023.66
2022-08-26T01:23:10.842Z,101036.34
2022-08-26T01:25:47.096Z,101034.00
2022-08-26T01:28:21.674Z,101028.09
2022-08-26T01:30:52.978Z,101032.91
2022-08-26T01:33:24.495Z,101030.59
2022-08-26T01:35:52.500Z,101034.56
2022-08-26T01:38:23.733Z,101040.47
2022-08-26T01:40:52.053Z,101032.97
2022-08-26T01:43:28.367Z,101039.72
2022-08-26T01:45:56.995Z,101046.44
2022-08-26T01:48:29.246Z,101041.31
2022-08-26T01:50:57.480Z,101047.69
2022-08-26T01:53:28.033Z,101050.41
2022-08-26T01:56:00.613Z,101049.22
2022-08-26T01:58:33.739Z,101053.19
2022-08-26T02:01:02.939Z,101060.34
2022-08-26T02:03:32.487Z,101064.75
2022-08-26T02:06:03.911Z,101063.59
2022-08-26T02:08:39.262Z,101062.78
2022-08-26T02:11:07.616Z,101059.22
2022-08-26T02:13:39.830Z,101062.78
2022-08-26T02:16:09.403Z,101067.94
2022-08-26T02:18:39.831Z,101075.47
2022-08-26T02:21:09.150Z,101075.50
2022-08-26T02:23:39.186Z,101068.75
2022-08-26T02:26:11.138Z,101072.72
2022-08-26T02:28:46.272Z,101077.09
2022-08-26T02:31:14.204Z,101079.47
2022-08-26T02:33:43.046Z,101077.91
2022-08-26T02:36:13.398Z,101082.63
2022-08-26T02:38:43.154Z,101088.16
2022-08-26T02:41:11.270Z,101088.97
2022-08-26T02:43:39.129Z,101081.47
2022-08-26T02:46:07.389Z,101095.31
2022-08-26T02:48:35.264Z,101097.66
2022-08-26T02:51:04.377Z,101097.69
2022-08-26T02:53:35.532Z,101092.16
2022-08-26T02:56:05.584Z,101089.38
2022-08-26T02:58:33.551Z,101081.06
2022-08-26T03:01:02.127Z,101089.78
2022-08-26T03:03:33.561Z,101085.41
2022-08-26T03:06:01.563Z,101089.78
2022-08-26T03:08:29.385Z,101079.09
2022-08-26T03:10:57.270Z,101081.09
2022-08-26T03:13:26.496Z,101090.97
2022-08-26T03:15:55.175Z,101087.41
2022-08-26T03:18:24.337Z,101079.88
2022-08-26T03:20:52.312Z,101081.88
2022-08-26T03:23:20.174Z,101082.66
2022-08-26T03:25:50.951Z,101077.13
2022-08-26T03:28:19.491Z,101080.31
2022-08-26T03:30:49.138Z,101086.63
2022-08-26T03:33:17.345Z,101085.03
2022-08-26T03:35:48.026Z,101088.59
2022-08-26T03:38:19.781Z,101086.63
2022-08-26T03:40:48.637Z,101085.06
2022-08-26T03:43:19.047Z,101092.97
2022-08-26T03:45:48.264Z,101087.81
2022-08-26T03:48:19.116Z,101089.41
2022-08-26T03:50:47.005Z,101100.88
2022-08-26T03:53:16.648Z,101090.59
2022-08-26T03:55:48.498Z,101092.97
2022-08-26T03:58:20.483Z,101094.56
2022-08-26T04:00:51.409Z,101097.72
2022-08-26T04:03:37.606Z,101102.47
2022-08-26T04:06:06.013Z,101099.69
2022-08-26T04:08:33.901Z,101105.63
2022-08-26T04:11:01.831Z,101103.28
2022-08-26T04:13:29.991Z,101103.25
2022-08-26T04:15:59.606Z,101105.63
2022-08-26T04:18:36.915Z,101111.56
2022-08-26T04:21:05.599Z,101115.91
2022-08-26T04:23:46.894Z,101113.56
2022-08-26T04:26:15.921Z,101118.31
2022-08-26T04:28:44.096Z,101110.38
2022-08-26T04:31:14.862Z,101109.59
2022-08-26T04:33:43.373Z,101112.78
2022-08-26T04:36:11.230Z,101106.03
2022-08-26T04:38:39.209Z,101104.84
2022-08-26T04:41:15.649Z,101107.59
2022-08-26T04:43:45.618Z,101106.81
2022-08-26T04:46:22.061Z,101110.38
2022-08-26T04:48:51.298Z,101122.25
2022-08-26T04:51:20.345Z,101115.91
2022-08-26T04:53:48.708Z,101119.09
2022-08-26T04:56:20.039Z,101126.22
2022-08-26T04:58:49.560Z,101124.66
2022-08-26T05:01:18.996Z,101127.41
2022-08-26T05:03:46.938Z,101125.03
2022-08-26T05:06:15.424Z,101130.19
2022-08-26T05:08:47.003Z,101128.19
2022-08-26T05:11:15.409Z,101134.16
2022-08-26T05:13:43.635Z,101139.69
2022-08-26T05:16:14.062Z,101128.97
2022-08-26T05:18:45.813Z,101130.19
2022-08-26T05:21:20.020Z,101125.84
2022-08-26T05:23:48.380Z,101122.25
2022-08-26T05:26:17.565Z,101125.00
2022-08-26T05:28:51.072Z,101130.97
2022-08-26T05:31:25.530Z,101126.22
2022-08-26T05:33:55.358Z,101128.59
2022-08-26T05:36:27.006Z,101136.50
2022-08-26T05:38:55.256Z,101130.19
2022-08-26T05:41:27.641Z,101128.63
2022-08-26T05:44:04.089Z,101134.53
2022-08-26T05:46:31.940Z,101140.47
2022-08-26T05:49:01.610Z,101142.06
2022-08-26T05:51:30.977Z,101138.91
2022-08-26T05:54:00.332Z,101145.22
2022-08-26T05:56:29.081Z,101146.78
2022-08-26T05:58:58.576Z,101146.00
2022-08-26T06:01:29.773Z,101149.19
2022-08-26T06:03:59.669Z,101144.03
2022-08-26T06:06:33.740Z,101143.25
2022-08-26T06:09:03.543Z,101146.00
2022-08-26T06:11:33.397Z,101153.91
2022-08-26T06:14:05.898Z,101149.97
2022-08-26T06:16:35.814Z,101146.41
2022-08-26T06:19:10.366Z,101152.72
2022-08-26T06:21:42.610Z,101146.81
2022-08-26T06:24:31.043Z,101159.47
2022-08-26T06:27:01.835Z,101160.66
2022-08-26T06:29:31.570Z,101157.09
2022-08-26T06:31:59.720Z,101158.69
2022-08-26T06:34:30.508Z,101159.50
2022-08-26T06:37:03.660Z,101161.88
2022-08-26T06:39:32.588Z,101161.06
2022-08-26T06:42:02.654Z,101164.25
2022-08-26T06:44:32.410Z,101168.97
2022-08-26T06:47:00.392Z,101165.81
2022-08-26T06:49:28.294Z,101170.97
2022-08-26T06:51:58.201Z,101163.84
2022-08-26T06:54:28.384Z,101167.78
2022-08-26T06:56:57.485Z,101162.66
2022-08-26T06:59:25.659Z,101172.16
2022-08-26T07:01:54.976Z,101170.56
2022-08-26T07:04:24.661Z,101165.03
2022-08-26T07:06:55.709Z,101163.47
2022-08-26T07:09:25.378Z,101175.31
2022-08-26T07:11:56.567Z,101176.13
2022-08-26T07:14:26.100Z,101173.75
2022-08-26T07:16:54.128Z,101178.50
2022-08-26T07:19:28.541Z,101177.69
2022-08-26T07:22:01.797Z,101182.44
2022-08-26T07:24:31.296Z,101188.78
2022-08-26T07:27:02.819Z,101178.50
2022-08-26T07:29:31.485Z,101190.38
2022-08-26T07:31:59.705Z,101188.78
2022-08-26T07:34:27.953Z,101196.31
2022-08-26T07:36:57.159Z,101191.19
2022-08-26T07:39:28.502Z,101187.22
2022-08-26T07:42:00.165Z,101191.56
2022-08-26T07:44:30.358Z,101194.72
2022-08-26T07:46:58.797Z,101203.84
2022-08-26T07:49:28.151Z,101199.50
2022-08-26T07:51:56.979Z,101206.22
2022-08-26T07:54:26.982Z,101212.16
2022-08-26T07:56:56.095Z,101203.06
2022-08-26T07:59:24.977Z,101207.44
2022-08-26T08:01:55.051Z,101201.50
2022-08-26T08:04:26.554Z,101212.16
2022-08-26T08:06:56.077Z,101207.03
2022-08-26T08:09:25.289Z,101210.97
2022-08-26T08:11:54.055Z,101219.28
2022-08-26T08:14:22.407Z,101216.16
2022-08-26T08:16:51.165Z,101215.75
2022-08-26T08:19:24.435Z,101216.53
2022-08-26T08:22:05.277Z,101210.16
2022-08-26T08:24:45.123Z,101214.94
2022-08-26T08:27:13.152Z,101211.81
2022-08-26T08:29:41.611Z,101220.13
2022-08-26T08:32:11.420Z,101218.94
2022-08-26T08:37:14.067Z,101224.88
2022-08-26T08:39:42.060Z,101233.16
2022-08-26T08:42:35.544Z,101231.59
2022-08-26T08:45:08.959Z,101228.41
2022-08-26T08:47:42.137Z,101227.63
2022-08-26T08:50:21.837Z,101235.16
2022-08-26T08:52:57.412Z,101230.81
2022-08-26T08:55:32.443Z,101229.19
2022-08-26T08:58:06.546Z,101230.00
2022-08-26T09:00:44.203Z,101238.31
2022-08-26T09:03:26.830Z,101226.03
2022-08-26T09:05:56.635Z,101230.78
2022-08-26T09:08:29.378Z,101231.56
2022-08-26T09:10:59.753Z,101232.34
2022-08-26T09:13:28.146Z,101235.53
2022-08-26T09:16:06.661Z,101239.88
2022-08-26T09:19:00.516Z,101239.53
2022-08-26T09:21:30.462Z,101237.91
2022-08-26T09:23:59.530Z,101239.50
2022-08-26T09:26:31.084Z,101241.06
2022-08-26T09:29:01.030Z,101243.03
2022-08-26T09:31:31.098Z,101240.69
2022-08-26T09:34:17.395Z,101238.31
2022-08-26T09:36:49.015Z,101239.09
2022-08-26T09:39:33.797Z,101240.28
2022-08-26T09:42:11.720Z,101236.69
2022-08-26T09:44:59.686Z,101234.69
2022-08-26T09:47:31.686Z,101241.78
2022-08-26T09:50:09.420Z,101246.59
2022-08-26T09:52:40.394Z,101238.22
2022-08-26T09:55:14.774Z,101245.72
2022-08-26T09:57:51.106Z,101244.09
2022-08-26T10:00:34.728Z,101233.03
2022-08-26T10:03:10.767Z,101240.53
2022-08-26T10:05:44.563Z,101233.78
2022-08-26T10:08:27.350Z,101240.13
2022-08-26T10:10:57.284Z,101234.53
2022-08-26T10:13:30.161Z,101236.13
2022-08-26T10:16:07.007Z,101238.53
2022-08-26T10:18:42.223Z,101234.53
2022-08-26T10:21:15.456Z,101229.44
2022-08-26T10:23:50.917Z,101230.25
2022-08-26T10:26:26.492Z,101230.28
2022-08-26T10:29:03.777Z,101233.84
2022-08-26T10:31:40.725Z,101225.09
2022-08-26T10:34:09.935Z,101226.28
2022-08-26T10:37:13.471Z,101227.84
2022-08-26T10:39:48.212Z,101221.84
2022-08-26T10:42:23.320Z,101222.22
2022-08-26T10:44:54.900Z,101222.59
2022-08-26T10:47:33.297Z,101222.56
2022-08-26T10:50:03.651Z,101223.34
2022-08-26T10:52:46.319Z,101225.78
2022-08-26T10:55:24.360Z,101224.19
2022-08-26T10:58:00.221Z,101217.81
2022-08-26T11:00:55.944Z,101226.47
2022-08-26T11:03:34.429Z,101225.72
2022-08-26T11:06:23.692Z,101226.09
2022-08-26T11:08:53.606Z,101226.81
2022-08-26T11:11:50.802Z,101228.78
2022-08-26T11:14:53.566Z,101228.03
2022-08-26T11:17:58.130Z,101221.25
2022-08-26T11:20:37.266Z,101227.97
2022-08-26T11:23:40.382Z,101220.44
2022-08-26T11:26:20.401Z,101222.38
2022-08-26T11:29:12.108Z,101219.19
2022-08-26T11:31:56.321Z,101219.66
2022-08-26T11:34:54.028Z,101223.25
2022-08-26T11:37:27.297Z,101222.84
2022-08-26T11:39:56.945Z,101225.63
2022-08-26T11:42:33.190Z,101222.06
2022-08-26T11:45:14.356Z,101222.41
2022-08-26T11:47:42.365Z,101216.84
2022-08-26T11:50:14.455Z,101211.69
2022-08-26T11:52:42.303Z,101217.28
2022-08-26T11:55:14.947Z,101212.47
2022-08-26T11:57:47.492Z,101208.88
2022-08-26T12:00:22.640Z,101219.53
2022-08-26T12:02:52.603Z,101207.94
2022-08-26T12:05:30.954Z,101212.31
2022-08-26T12:08:02.851Z,101211.56
2022-08-26T12:10:33.680Z,101211.09
2022-08-26T12:13:03.170Z,101210.69
2022-08-26T12:15:34.167Z,101218.22
2022-08-26T12:18:28.954Z,101211.09
2022-08-26T12:20:59.846Z,101216.63
2022-08-26T12:23:37.326Z,101221.38
2022-08-26T12:26:08.465Z,101212.25
2022-08-26T12:28:43.753Z,101210.97
2022-08-26T12:31:13.277Z,101215.34
2022-08-26T12:33:45.328Z,101213.78
2022-08-26T12:36:13.567Z,101218.22
2022-08-26T12:38:41.542Z,101212.66
2022-08-26T12:41:09.456Z,101209.41
2022-08-26T12:43:43.062Z,101218.97
2022-08-26T12:46:15.326Z,101219.00
2022-08-26T12:48:48.453Z,101226.50
2022-08-26T12:51:25.169Z,101226.16
2022-08-26T12:53:53.729Z,101238.91
2022-08-26T12:56:32.441Z,101227.88
2022-08-26T12:59:12.259Z,101225.09
2022-08-26T13:01:45.297Z,101231.84
2022-08-26T13:04:36.746Z,101224.38
2022-08-26T13:07:22.949Z,101212.88
2022-08-26T13:09:51.879Z,101211.25
2022-08-26T13:12:31.160Z,101210.00
2022-08-26T13:14:59.924Z,101214.66
2022-08-26T13:17:30.447Z,101206.25
2022-08-26T13:20:03.541Z,101215.88
2022-08-26T13:22:31.969Z,101209.53
2022-08-26T13:24:59.854Z,101204.75
2022-08-26T13:27:28.516Z,101196.78
2022-08-26T13:29:58.985Z,101203.13
2022-08-26T13:32:27.813Z,101202.31
2022-08-26T13:34:58.896Z,101202.69
2022-08-26T13:37:34.328Z,101202.75
2022-08-26T13:40:04.864Z,101201.59
2022-08-26T13:42:32.919Z,101197.97
2022-08-26T13:45:02.383Z,101210.31
2022-08-26T13:47:30.754Z,101192.03
2022-08-26T13:50:00.059Z,101199.19
2022-08-26T13:52:30.688Z,101194.50
2022-08-26T13:54:59.302Z,101195.25
2022-08-26T13:57:28.503Z,101196.88
2022-08-26T13:59:59.016Z,101200.50
2022-08-26T14:02:27.488Z,101196.13
2022-08-26T14:04:55.953Z,101202.03
2022-08-26T14:07:26.928Z,101194.56
2022-08-26T14:09:54.987Z,101199.34
2022-08-26T14:12:22.809Z,101191.44
2022-08-26T14:14:50.677Z,101199.81
2022-08-26T14:17:22.816Z,101210.53
2022-08-26T14:19:51.677Z,101209.75
2022-08-26T14:22:22.439Z,101207.00
2022-08-26T14:24:52.357Z,101208.16
2022-08-26T14:27:20.166Z,101205.78
2022-08-26T14:29:47.979Z,101203.00
2022-08-26T14:32:23.132Z,101199.44
2022-08-26T14:34:51.234Z,101193.09
2022-08-26T14:37:19.230Z,101198.66
2022-08-26T14:39:47.659Z,101195.09
2022-08-26T14:42:19.947Z,101204.22
2022-08-26T14:44:57.598Z,101199.50
2022-08-26T14:47:25.623Z,101200.28
2022-08-26T14:49:53.532Z,101205.84
2022-08-26T14:52:21.557Z,101199.50
2022-08-26T14:54:48.422Z,101198.69
2022-08-26T14:57:24.178Z,101198.69
2022-08-26T14:59:52.006Z,101203.91
2022-08-26T15:02:22.261Z,101200.38
2022-08-26T15:05:00.836Z,101200.41
2022-08-26T15:07:28.709Z,101196.47
2022-08-26T15:09:56.616Z,101192.50
2022-08-26T15:12:26.162Z,101192.53
2022-08-26T15:14:53.991Z,101188.56
2022-08-26T15:17:21.840Z,101191.72
2022-08-26T15:19:49.671Z,101188.56
2022-08-26T15:22:17.636Z,101197.25
2022-08-26T15:24:45.655Z,101193.28
2022-08-26T15:27:13.629Z,101190.13
2022-08-26T15:29:42.809Z,101190.94
2022-08-26T15:32:11.046Z,101192.19
2022-08-26T15:34:39.300Z,101194.16
2022-08-26T15:37:08.405Z,101192.25
2022-08-26T15:39:36.686Z,101192.59
2022-08-26T15:42:05.300Z,101189.41
2022-08-26T15:44:34.087Z,101183.44
2022-08-26T15:47:03.492Z,101181.84
2022-08-26T15:49:31.416Z,101182.66
2022-08-26T15:51:59.316Z,101183.06
2022-08-26T15:54:27.193Z,101176.69
2022-08-26T15:56:55.079Z,101180.66
2022-08-26T15:59:23.472Z,101179.47
2022-08-26T16:01:51.593Z,101178.25
2022-08-26T16:04:21.401Z,101179.84
2022-08-26T16:06:52.127Z,101182.16
2022-08-26T16:09:22.838Z,101185.69
2022-08-26T16:11:52.120Z,101182.13
2022-08-26T16:14:19.990Z,101181.00
2022-08-26T16:16:48.171Z,101181.41
2022-08-26T16:19:16.467Z,101182.22
2022-08-26T16:21:46.447Z,101183.06
2022-08-26T16:24:14.306Z,101182.28
2022-08-26T16:26:43.944Z,101180.34
2022-08-26T16:29:13.945Z,101187.88
2022-08-26T16:31:42.107Z,101189.50
2022-08-26T16:34:10.746Z,101185.09
2022-08-26T16:36:40.143Z,101187.47
2022-08-26T16:39:09.874Z,101188.28
2022-08-26T16:41:38.398Z,101184.31
2022-08-26T16:44:08.262Z,101185.50
2022-08-26T16:46:36.936Z,101180.38
2022-08-26T16:49:05.460Z,101191.84
2022-08-26T16:51:37.752Z,101195.44
2022-08-26T16:54:07.446Z,101199.81
2022-08-26T16:56:36.858Z,101206.16
2022-08-26T16:59:06.156Z,101207.34
2022-08-26T17:01:34.089Z,101202.22
2022-08-26T17:04:02.138Z,101202.22
2022-08-26T17:06:30.083Z,101215.69
2022-08-26T17:08:58.013Z,101211.72
2022-08-26T17:11:25.859Z,101212.53
2022-08-26T17:13:55.161Z,101228.78
2022-08-26T17:16:26.704Z,101224.03
2022-08-26T17:18:56.142Z,101225.63
2022-08-26T17:21:24.606Z,101231.56
2022-08-26T17:23:52.499Z,101233.13
2022-08-26T17:26:20.726Z,101238.69
2022-08-26T17:28:48.784Z,101235.53
2022-08-26T17:31:18.253Z,101244.66
2022-08-26T17:33:50.284Z,101244.25
2022-08-26T17:36:21.649Z,101244.66
2022-08-26T17:38:50.342Z,101246.63
2022-08-26T17:41:22.179Z,101247.84
2022-08-26T17:43:50.305Z,101247.84
2022-08-26T17:46:20.166Z,101244.25
2022-08-26T17:48:48.284Z,101241.09
2022-08-26T17:51:19.172Z,101241.88
2022-08-26T17:53:48.875Z,101243.88
2022-08-26T17:56:20.261Z,101249.03
2022-08-26T17:58:51.865Z,101253.41
2022-08-26T18:01:22.168Z,101256.19
2022-08-26T18:03:50.560Z,101254.56
2022-08-26T18:06:18.621Z,101243.09
2022-08-26T18:08:46.977Z,101239.53
2022-08-26T18:11:17.388Z,101232.38
2022-08-26T18:13:47.571Z,101241.50
2022-08-26T18:16:17.014Z,101246.69
2022-08-26T18:18:47.714Z,101239.53
2022-08-26T18:21:17.096Z,101239.53
2022-08-26T18:23:45.543Z,101239.53
2022-08-26T18:26:18.070Z,101237.91
2022-08-26T18:28:46.412Z,101250.59
2022-08-26T18:31:15.309Z,101245.84
2022-08-26T18:33:44.122Z,101244.25
2022-08-26T18:36:18.514Z,101245.81
2022-08-26T18:38:47.035Z,101246.63
2022-08-26T18:41:15.458Z,101249.00
2022-08-26T18:43:43.587Z,101248.19
2022-08-26T18:46:12.234Z,101254.53
2022-08-26T18:48:42.642Z,101253.38
2022-08-26T18:51:18.900Z,101250.19
2022-08-26T18:53:47.728Z,101253.75
2022-08-26T18:56:18.152Z,101257.72
2022-08-26T18:58:46.804Z,101262.47
2022-08-26T19:01:16.334Z,101262.47
2022-08-26T19:03:44.497Z,101268.78
2022-08-26T19:06:15.466Z,101265.56
2022-08-26T19:08:45.013Z,101263.22
2022-08-26T19:11:14.308Z,101268.34
2022-08-26T19:13:42.333Z,101265.97
2022-08-26T19:16:16.452Z,101261.63
2022-08-26T19:18:44.744Z,101271.09
2022-08-26T19:21:12.694Z,101275.00
2022-08-26T19:23:40.723Z,101270.97
2022-08-26T19:26:11.136Z,101275.69
2022-08-26T19:28:40.869Z,101270.16
2022-08-26T19:31:10.883Z,101278.47
2022-08-26T19:33:39.563Z,101278.47
2022-08-26T19:36:11.503Z,101276.50
2022-08-26T19:38:43.236Z,101277.69
2022-08-26T19:41:14.040Z,101275.66
2022-08-26T19:43:42.575Z,101280.81
2022-08-26T19:46:12.835Z,101281.16
2022-08-26T19:48:44.054Z,101289.50
2022-08-26T19:51:14.172Z,101280.34
2022-08-26T19:53:42.264Z,101278.72
2022-08-26T19:56:10.445Z,101271.63
2022-08-26T19:58:39.897Z,101276.34
2022-08-26T20:01:08.776Z,101273.19
2022-08-26T20:03:37.699Z,101281.84
2022-08-26T20:06:06.853Z,101277.84
2022-08-26T20:08:35.352Z,101281.81
2022-08-26T20:11:05.237Z,101281.81
2022-08-26T20:13:33.431Z,101275.06
2022-08-26T20:16:03.136Z,101286.16
2022-08-26T20:18:48.644Z,101285.72
2022-08-26T20:21:29.229Z,101279.00
2022-08-26T20:24:00.618Z,101283.69
2022-08-26T20:26:29.966Z,101293.56
2022-08-26T20:28:58.308Z,101295.06
2022-08-26T20:31:28.672Z,101298.97
2022-08-26T20:33:56.823Z,101300.50
2022-08-26T20:36:29.350Z,101301.28
2022-08-26T20:38:57.918Z,101304.38
2022-08-26T20:41:26.441Z,101299.19
2022-08-26T20:43:54.475Z,101298.78
2022-08-26T20:46:25.121Z,101301.97
2022-08-26T20:48:55.666Z,101306.69
2022-08-26T20:51:26.119Z,101305.44
2022-08-26T20:53:54.129Z,101304.66
2022-08-26T20:56:24.367Z,101306.63
2022-08-26T20:58:54.089Z,101308.94
2022-08-26T21:01:25.289Z,101319.25
2022-08-26T21:03:55.804Z,101310.63
2022-08-26T21:06:24.359Z,101314.22
2022-08-26T21:08:52.624Z,101309.53
2022-08-26T21:11:21.508Z,101315.50
2022-08-26T21:14:04.420Z,101304.38
2022-08-26T21:16:36.808Z,101308.94
2022-08-26T21:19:07.997Z,101313.66
2022-08-26T21:21:36.258Z,101311.56
2022-08-26T21:24:04.884Z,101308.00
2022-08-26T21:26:34.335Z,101313.19
2022-08-26T21:29:03.192Z,101319.13
2022-08-26T21:31:32.037Z,101315.97
2022-08-26T21:34:00.759Z,101311.19
2022-08-26T21:36:30.170Z,101315.38
2022-08-26T21:38:58.122Z,101324.75
2022-08-26T21:41:27.729Z,101322.66
2022-08-26T21:43:59.229Z,101329.00
2022-08-26T21:46:29.645Z,101325.44
2022-08-26T21:49:00.262Z,101327.41
2022-08-26T21:51:31.385Z,101324.31
2022-08-26T21:54:00.597Z,101321.91
2022-08-26T21:56:31.643Z,101323.78
2022-08-26T21:59:00.848Z,101319.47
2022-08-26T22:01:31.901Z,101326.59
2022-08-26T22:04:00.391Z,101317.88
2022-08-26T22:06:29.917Z,101331.34
2022-08-26T22:08:58.108Z,101332.47
2022-08-26T22:11:27.523Z,101332.88
2022-08-26T22:13:56.799Z,101328.19
2022-08-26T22:16:26.891Z,101339.97
2022-08-26T22:18:55.312Z,101331.97
2022-08-26T22:21:25.202Z,101333.16
2022-08-26T22:23:58.077Z,101341.13
2022-08-26T22:26:28.771Z,101332.88
2022-08-26T22:28:59.195Z,101337.97
2022-08-26T22:31:37.542Z,101334.72
2022-08-26T22:34:08.061Z,101336.31
2022-08-26T22:36:43.219Z,101341.84
2022-08-26T22:39:14.837Z,101340.59
2022-08-26T22:41:43.337Z,101343.75
2022-08-26T22:44:12.541Z,101344.50
2022-08-26T22:46:41.630Z,101343.63
2022-08-26T22:49:10.251Z,101341.66
2022-08-26T22:51:38.191Z,101338.91
2022-08-26T22:54:06.695Z,101346.03
2022-08-26T22:56:36.937Z,101337.31
2022-08-26T22:59:05.384Z,101353.03
2022-08-26T23:01:36.648Z,101338.72
2022-08-26T23:04:06.299Z,101344.13
2022-08-26T23:06:36.483Z,101341.69
2022-08-26T23:09:05.266Z,101344.75
2022-08-26T23:11:33.123Z,101340.72
2022-08-26T23:14:06.289Z,101336.81
2022-08-26T23:16:38.014Z,101339.84
2022-08-26T23:19:07.894Z,101347.25
2022-08-26T23:24:04.073Z,101345.31
2022-08-26T23:26:32.235Z,101348.44
2022-08-26T23:29:00.255Z,101344.41
2022-08-26T23:31:30.075Z,101351.00
2022-08-26T23:34:15.490Z,101348.19
2022-08-26T23:36:45.304Z,101345.00
2022-08-26T23:39:15.223Z,101344.19
2022-08-26T23:41:43.707Z,101343.47
2022-08-26T23:44:12.297Z,101349.78
2022-08-26T23:46:41.738Z,101336.03
2022-08-26T23:49:09.945Z,101335.59
2022-08-26T23:51:53.295Z,101333.72
2022-08-26T23:54:21.148Z,101334.13
2022-08-26T23:56:48.976Z,101339.56
2022-08-26T23:59:16.847Z,101334.03
